Terminal Aerodrome Forecast
Issued by NWS

Home | Current Version | Previous Version | Text Only | Print | Product List | Glossary On
Versions: 1 2 3 4 5 6 7 8 9 10 11 12 13 14 15 16 17 18
341
FTUS45 KABQ 300524
TAFTCC
TAF
KTCC 300524Z 3006/3106 26009KT P6SM SKC
     FM302300 23010KT P6SM SCT250
     FM310200 20008KT P6SM SCT250=

USA.gov is the U.S. government's official web portal to all federal, state and local government web resources and services.